Aérodrome :
LOGIN :

S'inscrire | Disclaimer

   EN    FR    IT 

 










Légende :    VFR   VFR Marginal   IFR   IFR Intensif   IFR Très Intensif
Visi : 
Plafond : 
>= 8 km
>= 3000ft
5 à 8 km
1000 à 3000 ft
1500m à 5 km
500 à 1000 ft
800 à 1500m
200 à 500 ft
< 800m
< 200 ft
Symboles :   Orages  Brouillard  Fortes neiges  Fortes précipitations  Vent > 20 kt
SIGMETs :   Divers  Orages  Givrage  Turbulence  Onde Orograph.  Cendres Volcan.






- Altitude de l'aérodrome : 1363 ft


ETIC - Grafenwohr Army Air Field

DERNIER METAR :
  • 010656Z AUTO 00000KT 0400 R32/0600V0800 FG VV001 04/04 A2977 RMK AO2 SLP091 T00440044 $

METARs EXPIRÉS :
  • 010641Z AUTO 00000KT 0600 R32/0650V1400 FG VV001 05/05 A2978 RMK AO2 SLP095 $
  • 010611Z AUTO 00000KT 0200 R32/0450V0650 FG VV001 04/04 A2978 RMK AO2 SLP095 $
  • 010456Z AUTO 00000KT 0600 R32/0550V0650 FG VV001 04/04 A2980 RMK AO2 SLP098 T00430043 $
  • 010441Z AUTO 00000KT 0800 R32/0800V0900 FG VV001 05/05 A2980 RMK AO2 SLP098 $

TAF AMD TAF ETIC
Valide du 01 à 07h jusqu'au 02 à 08h UTC


010730Z 0107/0208 VRB03KT 0400 FG OVC001 QNH2976INS
TEMPO 0108/0110 1600 BR OVC006
BECMG 0109/0110 VRB06KT 4000 BR SCT005 BKN010 QNH2978INS
BECMG 0111/0112 VRB06KT 8000 HZ FEW005 SCT010 BKN015 QNH2977INS
BECMG 0116/0117 VRB06KT 9999 NSW SCT010 BKN015 QNH2975INS
BECMG 0120/0121 VRB06KT 5000 BR BKN010 QNH2973INS
TEMPO 0122/0206 3200 BR BKN005 TX16/0112Z TN06/0107Z



MET'MAP, la Météo Aéronautique d'un coup d'oeil ! - Copyright ORBIFLY Décembre 2007 - Disclaimer

ORBIFLY MET'MAP TEAM :

Programmation & Développement : Alexandra Zaïnal
Sur une idée originale de : Baudouin d'Aumeries
Assistance à la programmation : Marc-Olivier Méhu
Soutien technique & logistique : Manuel Goepfert

Contact : metmap@orbifly.com




SOURCES & CREDITS :

   NOAA